Winterport, Maine
Current Conditions -  °F | °C
As of 1:53 AM on Saturday 25 Oct 2014 (Local Time) from KBGR Reporting Station
Broken Clouds Broken Clouds  
Wind Chill:   Ceiling: 2400
Heat Index:   Visibility: 10mi
Dew Point:   Wind: 6mph
Humidity: 93%   Direction: 300°WNW
Pressure: 29.65"   Gusts: NA
Location:  44.65°N, 68.86°W
Report Text: KBGR 250553Z 30005KT 10SM BKN024 07/06 A2965 RMK AO2 SLP041 60002 T00670056 10067 20061 58005
Loading
Personal Weather Stations






























Interactive Weather Map
Tropical Storm Tracking
New forecast layout! Learn more

10-Day Weather Forecast

Advertisements
Track Severe Weather on mobile